createdAt,value
2019-03-06T00:01:39.767Z,8.00
2019-03-06T00:04:09.234Z,10.67
2019-03-06T00:06:38.668Z,9.67
2019-03-06T00:09:08.340Z,10.67
2019-03-06T00:11:37.790Z,9.83
2019-03-06T00:14:07.255Z,6.73
2019-03-06T00:16:36.681Z,8.27
2019-03-06T00:19:19.186Z,8.23
2019-03-06T00:21:48.943Z,11.87
2019-03-06T00:24:18.386Z,10.53
2019-03-06T00:26:48.014Z,9.90
2019-03-06T00:29:17.425Z,8.10
2019-03-06T00:31:46.833Z,7.30
2019-03-06T00:34:16.359Z,11.47
2019-03-06T00:36:45.816Z,10.10
2019-03-06T00:39:15.214Z,10.87
2019-03-06T00:41:44.904Z,14.03
2019-03-06T00:44:14.338Z,14.07
2019-03-06T00:46:43.832Z,14.93
2019-03-06T00:49:13.329Z,17.83
2019-03-06T00:51:42.749Z,22.90
2019-03-06T00:54:12.371Z,34.40
2019-03-06T00:56:41.770Z,34.67
2019-03-06T00:59:11.207Z,37.47
2019-03-06T01:01:40.665Z,36.80
2019-03-06T01:04:10.154Z,30.93
2019-03-06T01:06:39.613Z,30.60
2019-03-06T01:09:09.131Z,25.17
2019-03-06T01:11:38.631Z,24.00
2019-03-06T01:14:08.147Z,26.57
2019-03-06T01:16:37.644Z,25.57
2019-03-06T01:19:07.087Z,28.03
2019-03-06T01:21:36.636Z,32.43
2019-03-06T01:24:07.943Z,41.43
2019-03-06T01:26:37.371Z,43.83
2019-03-06T01:29:06.952Z,44.10
2019-03-06T01:31:36.460Z,47.90
2019-03-06T01:34:07.626Z,43.50
2019-03-06T01:36:38.696Z,45.60
2019-03-06T01:39:09.789Z,55.67
2019-03-06T01:41:53.735Z,48.40
2019-03-06T01:44:24.741Z,34.67
2019-03-06T01:46:54.306Z,36.73
2019-03-06T01:49:23.890Z,35.77
2019-03-06T01:51:53.412Z,30.63
2019-03-06T01:54:22.916Z,26.03
2019-03-06T01:56:52.394Z,30.00
2019-03-06T01:59:21.944Z,27.83
2019-03-06T02:01:51.437Z,27.10
2019-03-06T02:04:20.846Z,28.63
2019-03-06T02:06:50.273Z,28.17
2019-03-06T02:09:21.251Z,27.87
2019-03-06T02:11:50.696Z,26.63
2019-03-06T02:14:20.161Z,27.73
2019-03-06T02:16:49.580Z,28.63
2019-03-06T02:19:18.976Z,27.10
2019-03-06T02:21:48.543Z,30.67
2019-03-06T02:24:37.794Z,25.77
2019-03-06T02:27:07.306Z,27.03
2019-03-06T02:29:36.746Z,28.77
2019-03-06T02:32:06.239Z,32.17
2019-03-06T02:34:35.714Z,34.33
2019-03-06T02:37:05.129Z,33.47
2019-03-06T02:39:34.572Z,34.30
2019-03-06T02:42:04.061Z,34.53
2019-03-06T02:44:34.715Z,37.03
2019-03-06T02:47:04.234Z,45.10
2019-03-06T02:49:33.671Z,43.23
2019-03-06T02:52:03.065Z,41.00
2019-03-06T02:54:34.106Z,34.63
2019-03-06T02:57:03.541Z,38.80
2019-03-06T02:59:34.629Z,38.63
2019-03-06T03:02:05.758Z,35.73
2019-03-06T03:04:36.883Z,38.13
2019-03-06T03:07:11.021Z,35.70
2019-03-06T03:09:40.645Z,38.27
2019-03-06T03:12:11.682Z,34.73
2019-03-06T03:14:44.449Z,38.17
2019-03-06T03:17:13.848Z,40.37
2019-03-06T03:19:43.308Z,41.87
2019-03-06T03:22:12.795Z,46.70
2019-03-06T03:24:42.446Z,43.03
2019-03-06T03:27:11.882Z,47.53
2019-03-06T03:29:41.308Z,47.77
2019-03-06T03:32:10.795Z,39.70
2019-03-06T03:34:40.279Z,39.60
2019-03-06T03:37:09.747Z,37.90
2019-03-06T03:39:39.192Z,35.47
2019-03-06T03:42:08.676Z,36.10
2019-03-06T03:44:38.111Z,32.37
2019-03-06T03:47:07.612Z,39.27
2019-03-06T03:49:37.050Z,33.20
2019-03-06T03:52:06.490Z,31.60
2019-03-06T03:54:35.884Z,37.97
2019-03-06T03:57:05.321Z,28.97
2019-03-06T03:59:34.732Z,31.67
2019-03-06T04:02:04.173Z,33.27
2019-03-06T04:04:33.587Z,29.43
2019-03-06T04:07:03.014Z,28.53
2019-03-06T04:09:32.454Z,29.87
2019-03-06T04:12:02.091Z,32.40
2019-03-06T04:14:31.494Z,33.53
2019-03-06T04:17:00.923Z,29.90
2019-03-06T04:19:30.413Z,32.20
2019-03-06T04:21:59.885Z,35.13
2019-03-06T04:24:29.488Z,34.17
2019-03-06T04:26:59.134Z,33.77
2019-03-06T04:29:28.591Z,35.67
2019-03-06T04:32:11.408Z,36.87
2019-03-06T04:34:41.231Z,37.13
2019-03-06T04:37:10.656Z,43.67
2019-03-06T04:39:40.181Z,35.40
2019-03-06T04:42:09.631Z,34.10
2019-03-06T04:44:39.043Z,37.77
2019-03-06T04:47:08.504Z,34.30
2019-03-06T04:49:37.956Z,35.70
2019-03-06T04:52:07.563Z,32.37
2019-03-06T04:54:36.965Z,34.73
2019-03-06T04:57:06.483Z,31.50
2019-03-06T04:59:35.865Z,33.43
2019-03-06T05:02:05.277Z,33.67
2019-03-06T05:04:34.777Z,36.97
2019-03-06T05:07:04.292Z,37.10
2019-03-06T05:09:33.788Z,37.40
2019-03-06T05:12:03.296Z,36.03
2019-03-06T05:14:32.711Z,36.77
2019-03-06T05:17:03.773Z,30.37
2019-03-06T05:19:33.253Z,29.30
2019-03-06T05:22:02.689Z,34.07
2019-03-06T05:24:32.114Z,28.70
2019-03-06T05:27:02.921Z,34.77
2019-03-06T05:29:32.344Z,26.47
2019-03-06T05:32:04.934Z,30.20
2019-03-06T05:34:34.431Z,28.43
2019-03-06T05:37:07.026Z,30.70
2019-03-06T05:39:36.505Z,29.50
2019-03-06T05:42:05.932Z,29.30
2019-03-06T05:44:35.380Z,25.27
2019-03-06T05:47:04.847Z,24.70
2019-03-06T05:49:34.287Z,27.20
2019-03-06T05:52:03.696Z,23.80
2019-03-06T05:54:33.127Z,24.13
2019-03-06T05:57:02.902Z,28.83
2019-03-06T05:59:32.360Z,23.33
2019-03-06T06:02:01.818Z,26.20
2019-03-06T06:04:31.219Z,26.47
2019-03-06T06:07:00.639Z,21.23
2019-03-06T06:09:30.128Z,26.53
2019-03-06T06:11:59.653Z,20.97
2019-03-06T06:14:29.041Z,22.80
2019-03-06T06:16:58.459Z,23.03
2019-03-06T06:19:27.997Z,25.83
2019-03-06T06:21:59.213Z,22.30
2019-03-06T06:24:28.716Z,23.30
2019-03-06T06:26:58.326Z,22.67
2019-03-06T06:29:28.096Z,25.17
2019-03-06T06:31:57.569Z,26.07
2019-03-06T06:34:27.010Z,25.50
2019-03-06T06:36:56.485Z,26.73
2019-03-06T06:39:25.914Z,26.23
2019-03-06T06:41:55.392Z,20.97
2019-03-06T06:44:25.288Z,22.97
2019-03-06T06:46:54.816Z,21.17
2019-03-06T06:49:24.416Z,26.33
2019-03-06T06:51:57.681Z,23.33
2019-03-06T06:54:30.258Z,26.53
2019-03-06T06:57:03.569Z,19.00
2019-03-06T06:59:36.312Z,22.80
2019-03-06T07:02:10.533Z,24.37
2019-03-06T07:07:54.836Z,23.80
2019-03-06T07:10:25.873Z,23.13
2019-03-06T07:12:56.917Z,22.30
2019-03-06T07:18:35.424Z,21.77
2019-03-06T07:21:06.457Z,18.50
2019-03-06T07:23:37.458Z,19.73
2019-03-06T07:26:11.683Z,19.87
2019-03-06T07:28:42.715Z,18.00
2019-03-06T07:31:14.051Z,21.10
2019-03-06T07:33:45.049Z,16.97
2019-03-06T07:36:16.152Z,19.57
2019-03-06T07:38:45.668Z,22.47
2019-03-06T07:41:16.736Z,17.10
2019-03-06T07:43:47.845Z,19.10
2019-03-06T07:46:19.164Z,22.10
2019-03-06T07:48:50.241Z,17.23
2019-03-06T07:51:21.237Z,17.10
2019-03-06T07:53:55.429Z,14.13
2019-03-06T07:56:26.497Z,16.73
2019-03-06T07:59:01.192Z,19.17
2019-03-06T08:01:33.571Z,18.73
2019-03-06T08:04:06.285Z,16.93
2019-03-06T08:06:36.271Z,16.23
2019-03-06T08:09:08.773Z,16.90
2019-03-06T08:11:39.916Z,14.97
2019-03-06T08:14:10.922Z,15.67
2019-03-06T08:16:44.885Z,13.67
2019-03-06T08:19:15.972Z,11.53
2019-03-06T08:21:50.069Z,12.10
2019-03-06T08:24:21.205Z,11.20
2019-03-06T08:26:50.849Z,10.80
2019-03-06T08:29:20.271Z,12.43
2019-03-06T08:31:52.150Z,11.43
2019-03-06T08:34:21.569Z,10.10
2019-03-06T08:36:51.095Z,9.27
2019-03-06T08:39:32.606Z,11.93
2019-03-06T08:42:02.054Z,12.13
2019-03-06T08:44:31.547Z,11.53
2019-03-06T08:47:02.736Z,10.90
2019-03-06T08:49:33.750Z,8.07
2019-03-06T08:52:04.742Z,7.63
2019-03-06T08:54:35.784Z,7.07
2019-03-06T08:57:07.235Z,9.53
2019-03-06T08:59:38.372Z,9.13
2019-03-06T09:02:15.439Z,8.47
2019-03-06T09:04:42.451Z,8.80
2019-03-06T09:07:14.207Z,7.73
2019-03-06T09:09:45.206Z,8.03
2019-03-06T09:12:16.289Z,8.70
2019-03-06T09:14:47.292Z,8.23
2019-03-06T09:17:18.473Z,8.20
2019-03-06T09:19:49.584Z,7.07
2019-03-06T09:22:20.638Z,8.63
2019-03-06T09:24:51.738Z,8.23
2019-03-06T09:27:23.044Z,7.87
2019-03-06T09:29:54.117Z,7.03
2019-03-06T09:32:30.061Z,8.20
2019-03-06T09:35:01.218Z,9.77
2019-03-06T09:37:32.338Z,5.23
2019-03-06T09:40:06.270Z,5.73
2019-03-06T09:42:37.327Z,8.30
2019-03-06T09:45:09.563Z,7.03
2019-03-06T09:47:40.782Z,4.87
2019-03-06T09:50:12.422Z,6.50
2019-03-06T09:52:43.808Z,7.33
2019-03-06T09:55:14.945Z,6.90
2019-03-06T09:57:46.005Z,7.83
2019-03-06T10:00:17.173Z,8.40
2019-03-06T10:02:48.191Z,5.93
2019-03-06T10:05:19.250Z,7.70
2019-03-06T10:07:52.737Z,7.47
2019-03-06T10:10:24.055Z,5.43
2019-03-06T10:12:55.141Z,6.20
2019-03-06T10:15:26.455Z,5.73
2019-03-06T10:17:57.488Z,6.37
2019-03-06T10:20:27.632Z,4.67
2019-03-06T10:22:59.577Z,5.67
2019-03-06T10:28:06.266Z,7.13
2019-03-06T10:30:30.663Z,6.17
2019-03-06T10:33:00.310Z,7.10
2019-03-06T10:35:29.759Z,6.87
2019-03-06T10:37:59.468Z,8.43
2019-03-06T10:40:28.886Z,7.80
2019-03-06T10:42:58.514Z,6.17
2019-03-06T10:45:27.996Z,10.47
2019-03-06T10:47:57.823Z,8.20
2019-03-06T10:50:28.344Z,7.57
2019-03-06T10:52:58.568Z,5.57
2019-03-06T10:55:28.200Z,6.63
2019-03-06T10:57:57.854Z,6.77
2019-03-06T11:00:31.432Z,6.23
2019-03-06T11:03:01.610Z,7.07
2019-03-06T11:05:32.712Z,6.67
2019-03-06T11:08:20.548Z,5.67
2019-03-06T11:11:08.120Z,6.77
2019-03-06T11:13:37.577Z,10.37
2019-03-06T11:16:07.621Z,6.00
2019-03-06T11:18:37.097Z,7.20
2019-03-06T11:21:08.918Z,7.47
2019-03-06T11:23:39.693Z,7.10
2019-03-06T11:26:09.572Z,7.77
2019-03-06T11:28:39.120Z,6.47
2019-03-06T11:31:08.725Z,5.73
2019-03-06T11:33:40.181Z,6.97
2019-03-06T11:36:11.193Z,8.30
2019-03-06T11:38:40.723Z,8.17
2019-03-06T11:41:10.177Z,6.43
2019-03-06T11:43:39.650Z,5.77
2019-03-06T11:46:12.431Z,7.00
2019-03-06T11:48:41.979Z,8.53
2019-03-06T11:51:11.479Z,6.73
2019-03-06T11:53:40.993Z,5.80
2019-03-06T11:56:13.013Z,5.50
2019-03-06T11:58:42.505Z,6.97
2019-03-06T12:01:17.502Z,9.67
2019-03-06T12:03:47.159Z,6.93
2019-03-06T12:06:16.976Z,4.83
2019-03-06T12:08:46.608Z,7.17
2019-03-06T12:11:16.083Z,5.77
2019-03-06T12:13:45.538Z,5.30
2019-03-06T12:16:16.627Z,6.73
2019-03-06T12:18:46.024Z,8.90
2019-03-06T12:21:17.279Z,7.30
2019-03-06T12:23:46.694Z,5.87
2019-03-06T12:26:16.195Z,5.03
2019-03-06T12:28:46.179Z,5.80
2019-03-06T12:31:17.277Z,10.43
2019-03-06T12:33:48.349Z,4.53
2019-03-06T12:36:20.503Z,4.80
2019-03-06T12:38:49.973Z,5.27
2019-03-06T12:41:19.571Z,5.90
2019-03-06T12:43:48.976Z,6.10
2019-03-06T12:46:23.816Z,6.67
2019-03-06T12:48:56.315Z,4.67
2019-03-06T12:51:27.741Z,13.07
2019-03-06T12:54:00.454Z,5.47
2019-03-06T12:56:29.898Z,6.73
2019-03-06T12:58:59.429Z,8.33
2019-03-06T13:01:30.560Z,6.93
2019-03-06T13:04:00.178Z,7.57
2019-03-06T13:06:29.720Z,6.53
2019-03-06T13:08:59.648Z,5.10
2019-03-06T13:11:29.090Z,7.50
2019-03-06T13:14:00.245Z,4.53
2019-03-06T13:16:29.713Z,8.47
2019-03-06T13:18:59.406Z,8.20
2019-03-06T13:21:28.912Z,5.77
2019-03-06T13:23:58.467Z,6.80
2019-03-06T13:26:27.921Z,7.60
2019-03-06T13:28:58.081Z,7.77
2019-03-06T13:31:27.816Z,6.30
2019-03-06T13:33:59.413Z,5.93
2019-03-06T13:36:28.971Z,4.23
2019-03-06T13:39:06.060Z,5.47
2019-03-06T13:41:29.519Z,5.93
2019-03-06T13:43:58.958Z,5.27
2019-03-06T13:46:28.635Z,9.53
2019-03-06T13:48:58.495Z,6.37
2019-03-06T13:51:28.083Z,8.23
2019-03-06T13:53:57.553Z,6.13
2019-03-06T13:56:28.679Z,5.47
2019-03-06T13:58:58.245Z,6.20
2019-03-06T14:01:27.827Z,5.33
2019-03-06T14:03:58.364Z,6.70
2019-03-06T14:06:27.902Z,5.50
2019-03-06T14:08:57.474Z,5.47
2019-03-06T14:11:26.879Z,9.07
2019-03-06T14:13:56.373Z,6.93
2019-03-06T14:16:26.290Z,9.47
2019-03-06T14:18:57.392Z,7.83
2019-03-06T14:21:26.983Z,8.27
2019-03-06T14:23:59.620Z,8.87
2019-03-06T14:26:29.068Z,7.30
2019-03-06T14:28:58.786Z,8.10
2019-03-06T14:31:28.313Z,13.60
2019-03-06T14:33:57.893Z,7.93
2019-03-06T14:36:27.391Z,10.20
2019-03-06T14:38:56.847Z,9.17
2019-03-06T14:41:26.508Z,15.40
2019-03-06T14:43:56.435Z,11.27
2019-03-06T14:46:26.179Z,11.10
2019-03-06T14:48:55.658Z,16.33
2019-03-06T14:51:28.012Z,14.00
2019-03-06T14:53:57.694Z,13.63
2019-03-06T14:56:27.478Z,12.00
2019-03-06T14:58:56.986Z,8.27
2019-03-06T15:01:26.455Z,8.67
2019-03-06T15:03:55.927Z,11.70
2019-03-06T15:06:27.036Z,8.67
2019-03-06T15:09:12.115Z,12.30
2019-03-06T15:11:41.649Z,11.50
2019-03-06T15:14:11.153Z,10.13
2019-03-06T15:16:40.571Z,10.83
2019-03-06T15:19:10.020Z,10.30
2019-03-06T15:21:39.602Z,11.80
2019-03-06T15:24:27.471Z,10.90
2019-03-06T15:26:57.011Z,9.67
2019-03-06T15:29:26.528Z,10.00
2019-03-06T15:31:56.207Z,6.50
2019-03-06T15:34:26.016Z,7.83
2019-03-06T15:36:55.719Z,10.50
2019-03-06T15:39:27.418Z,9.53
2019-03-06T15:42:00.284Z,14.33
2019-03-06T15:44:28.316Z,9.00
2019-03-06T15:46:58.250Z,15.03
2019-03-06T15:49:29.666Z,14.37
2019-03-06T15:51:59.145Z,12.13
2019-03-06T15:54:28.562Z,10.07
2019-03-06T15:56:58.078Z,5.37
2019-03-06T15:59:27.679Z,13.60
2019-03-06T16:01:57.135Z,9.10
2019-03-06T16:04:27.485Z,8.30
2019-03-06T16:06:56.967Z,9.20
2019-03-06T16:09:26.446Z,12.07
2019-03-06T16:11:56.091Z,11.57
2019-03-06T16:14:25.524Z,12.03
2019-03-06T16:16:54.985Z,8.53
2019-03-06T16:19:26.175Z,12.47
2019-03-06T16:21:55.741Z,15.17
2019-03-06T16:24:25.244Z,11.63
2019-03-06T16:26:54.744Z,9.47
2019-03-06T16:29:24.484Z,13.30
2019-03-06T16:31:53.887Z,9.57
2019-03-06T16:34:23.418Z,10.80
2019-03-06T16:36:54.028Z,12.53
2019-03-06T16:39:24.116Z,14.40
2019-03-06T16:41:59.940Z,13.83
2019-03-06T16:44:29.418Z,14.27
2019-03-06T16:47:06.402Z,9.60
2019-03-06T16:49:31.359Z,8.63
2019-03-06T16:52:00.923Z,11.43
2019-03-06T16:54:30.368Z,11.27
2019-03-06T16:56:59.874Z,10.23
2019-03-06T16:59:29.360Z,9.03
2019-03-06T17:01:58.827Z,8.67
2019-03-06T17:04:28.604Z,11.47
2019-03-06T17:06:58.100Z,7.17
2019-03-06T17:09:27.615Z,9.60
2019-03-06T17:11:57.057Z,11.23
2019-03-06T17:14:26.501Z,10.27
2019-03-06T17:16:55.937Z,14.33
2019-03-06T17:19:25.626Z,10.50
2019-03-06T17:21:55.387Z,13.03
2019-03-06T17:24:24.949Z,12.17
2019-03-06T17:26:54.492Z,12.97
2019-03-06T17:29:23.949Z,14.03
2019-03-06T17:31:54.374Z,14.60
2019-03-06T17:34:23.892Z,12.90
2019-03-06T17:36:53.383Z,11.50
2019-03-06T17:39:24.132Z,14.20
2019-03-06T17:41:53.738Z,13.30
2019-03-06T17:44:23.161Z,15.07
2019-03-06T17:46:52.755Z,12.63
2019-03-06T17:49:22.420Z,14.30
2019-03-06T17:51:52.376Z,16.17
2019-03-06T17:54:21.922Z,11.50
2019-03-06T17:56:51.391Z,11.17
2019-03-06T17:59:20.800Z,17.00
2019-03-06T18:01:51.746Z,11.17
2019-03-06T18:04:21.456Z,14.23
2019-03-06T18:06:50.875Z,13.60
2019-03-06T18:09:20.311Z,13.53
2019-03-06T18:11:50.226Z,14.17
2019-03-06T18:14:20.181Z,14.50
2019-03-06T18:16:49.694Z,17.30
2019-03-06T18:19:19.187Z,12.13
2019-03-06T18:21:48.753Z,14.63
2019-03-06T18:24:18.323Z,15.30
2019-03-06T18:26:47.822Z,17.03
2019-03-06T18:29:17.672Z,17.07
2019-03-06T18:31:47.237Z,14.60
2019-03-06T18:34:16.646Z,17.30
2019-03-06T18:36:46.144Z,10.27
2019-03-06T18:39:17.803Z,17.00
2019-03-06T18:41:49.130Z,18.30
2019-03-06T18:44:18.577Z,14.57
2019-03-06T18:46:48.023Z,16.93
2019-03-06T18:49:17.506Z,14.03
2019-03-06T18:51:47.046Z,14.37
2019-03-06T18:54:16.580Z,14.37
2019-03-06T18:56:46.063Z,16.90
2019-03-06T18:59:15.494Z,10.47
2019-03-06T19:01:44.908Z,11.83
2019-03-06T19:04:14.319Z,10.57
2019-03-06T19:06:43.788Z,9.37
2019-03-06T19:09:13.282Z,11.90
2019-03-06T19:11:43.021Z,7.50
2019-03-06T19:14:14.033Z,11.50
2019-03-06T19:16:43.469Z,12.03
2019-03-06T19:19:12.948Z,15.37
2019-03-06T19:21:43.405Z,13.87
2019-03-06T19:24:12.813Z,12.00
2019-03-06T19:26:42.568Z,11.97
2019-03-06T19:29:12.861Z,11.93
2019-03-06T19:31:42.311Z,12.50
2019-03-06T19:34:11.767Z,10.80
2019-03-06T19:36:41.323Z,12.43
2019-03-06T19:39:10.784Z,10.90
2019-03-06T19:41:40.234Z,10.23
2019-03-06T19:44:11.030Z,13.37
2019-03-06T19:46:40.521Z,12.50
2019-03-06T19:49:09.930Z,9.83
2019-03-06T19:51:39.386Z,15.00
2019-03-06T19:54:08.845Z,15.87
2019-03-06T19:56:38.322Z,16.50
2019-03-06T19:59:07.750Z,18.20
2019-03-06T20:01:37.209Z,17.57
2019-03-06T20:04:06.706Z,16.00
2019-03-06T20:06:36.171Z,14.37
2019-03-06T20:09:08.754Z,15.70
2019-03-06T20:11:38.201Z,18.40
2019-03-06T20:14:07.647Z,13.87
2019-03-06T20:16:37.110Z,20.97
2019-03-06T20:19:06.611Z,16.60
2019-03-06T20:21:36.064Z,15.97
2019-03-06T20:24:05.535Z,15.60
2019-03-06T20:26:35.060Z,16.57
2019-03-06T20:29:04.482Z,18.33
2019-03-06T20:31:34.070Z,17.40
2019-03-06T20:34:03.538Z,16.33
2019-03-06T20:36:33.077Z,20.47
2019-03-06T20:39:02.564Z,18.60
2019-03-06T20:41:31.974Z,15.87
2019-03-06T20:44:01.395Z,19.87
2019-03-06T20:46:31.986Z,21.37
2019-03-06T20:49:01.477Z,18.33
2019-03-06T20:51:31.107Z,16.70
2019-03-06T20:54:02.265Z,21.50
2019-03-06T20:56:32.484Z,24.00
2019-03-06T20:59:03.047Z,21.03
2019-03-06T21:01:32.961Z,23.17
2019-03-06T21:04:02.542Z,23.60
2019-03-06T21:06:36.331Z,27.77
2019-03-06T21:09:06.075Z,19.43
2019-03-06T21:11:36.341Z,19.83
2019-03-06T21:14:06.046Z,18.10
2019-03-06T21:16:35.513Z,20.90
2019-03-06T21:19:04.931Z,32.03
2019-03-06T21:21:34.406Z,24.20
2019-03-06T21:24:04.125Z,25.07
2019-03-06T21:26:33.515Z,21.77
2019-03-06T21:29:03.112Z,24.23
2019-03-06T21:31:32.919Z,20.40
2019-03-06T21:34:02.430Z,19.97
2019-03-06T21:36:31.846Z,20.10
2019-03-06T21:39:01.377Z,25.53
2019-03-06T21:41:30.892Z,19.87
2019-03-06T21:44:00.554Z,19.73
2019-03-06T21:46:30.064Z,20.60
2019-03-06T21:49:00.702Z,22.50
2019-03-06T21:51:30.096Z,18.43
2019-03-06T21:53:59.564Z,22.23
2019-03-06T21:56:29.106Z,22.93
2019-03-06T21:58:58.721Z,24.53
2019-03-06T22:01:28.157Z,23.30
2019-03-06T22:03:57.579Z,27.37
2019-03-06T22:06:26.976Z,29.40
2019-03-06T22:08:56.433Z,25.37
2019-03-06T22:11:25.948Z,30.77
2019-03-06T22:13:55.377Z,27.33
2019-03-06T22:16:24.902Z,23.13
2019-03-06T22:18:54.292Z,28.53
2019-03-06T22:21:23.752Z,27.43
2019-03-06T22:23:53.282Z,23.80
2019-03-06T22:26:22.718Z,25.23
2019-03-06T22:28:52.172Z,30.37
2019-03-06T22:31:21.581Z,31.97
2019-03-06T22:33:51.033Z,35.30
2019-03-06T22:36:20.586Z,28.40
2019-03-06T22:38:52.447Z,29.37
2019-03-06T22:41:22.013Z,25.53
2019-03-06T22:43:51.599Z,32.57
2019-03-06T22:46:21.002Z,30.70
2019-03-06T22:48:50.430Z,29.63
2019-03-06T22:51:20.144Z,27.93
2019-03-06T22:53:49.712Z,28.13
2019-03-06T22:56:19.305Z,32.03
2019-03-06T22:58:48.729Z,30.90
2019-03-06T23:01:21.334Z,34.27
2019-03-06T23:03:50.869Z,28.90
2019-03-06T23:06:20.322Z,31.57
2019-03-06T23:08:51.483Z,31.10
2019-03-06T23:11:21.079Z,31.53
2019-03-06T23:13:52.202Z,32.00
2019-03-06T23:16:21.686Z,34.97
2019-03-06T23:18:51.149Z,28.50
2019-03-06T23:21:20.588Z,32.73
2019-03-06T23:23:50.020Z,28.60
2019-03-06T23:26:19.451Z,28.17
2019-03-06T23:28:48.945Z,33.30
2019-03-06T23:31:18.890Z,34.00
2019-03-06T23:33:48.379Z,29.10
2019-03-06T23:36:17.979Z,33.30
2019-03-06T23:38:47.386Z,31.07
2019-03-06T23:41:16.787Z,36.43
2019-03-06T23:43:46.386Z,31.37
2019-03-06T23:46:15.861Z,33.57
2019-03-06T23:48:45.306Z,32.43
2019-03-06T23:51:16.328Z,30.43
2019-03-06T23:53:48.858Z,33.50
2019-03-06T23:56:18.226Z,35.37
2019-03-06T23:58:47.653Z,32.73
